Time;durP1;ratioP1;P1;durP2;ratioP2;P2;SDS_P1;SDS_P2;PMS_P1;PMS_P2;Temp;Humidity;BMP_temperature;BMP_pressure;BME280_temperature;BME280_humidity;BME280_pressure;Samples;Min_cycle;Max_cycle;Signal;HPM_P1;HPM_P2
2023/05/14 00:02:18;;;;;;;24.13;21.60;;;13.20;99.90;;;;;;6274298;28;20478;-64
2023/05/14 00:05:21;;;;;;;27.33;19.80;;;13.20;99.90;;;;;;6273965;28;20469;-64
2023/05/14 00:08:24;;;;;;;23.63;21.00;;;13.20;99.90;;;;;;6271752;28;20462;-64
2023/05/14 00:11:29;;;;;;;24.00;20.67;;;13.20;99.90;;;;;;6271892;28;20981;-64
2023/05/14 00:14:32;;;;;;;22.30;20.10;;;13.20;99.90;;;;;;6274203;28;20466;-63
2023/05/14 00:17:36;;;;;;;22.47;20.17;;;13.20;99.90;;;;;;6274092;28;20474;-63
2023/05/14 00:20:40;;;;;;;22.30;20.00;;;13.20;99.90;;;;;;6274617;28;20489;-63
2023/05/14 00:23:43;;;;;;;20.20;18.07;;;13.20;99.90;;;;;;6277208;28;20470;-63
2023/05/14 00:26:48;;;;;;;18.63;16.93;;;13.20;99.90;;;;;;6284183;28;20478;-63
2023/05/14 00:29:51;;;;;;;18.60;16.60;;;13.20;99.90;;;;;;6275323;28;20469;-64
2023/05/14 00:32:55;;;;;;;17.93;16.13;;;13.20;99.90;;;;;;6275112;28;20481;-63
2023/05/14 00:35:58;;;;;;;17.33;15.73;;;13.20;99.90;;;;;;6274372;28;20826;-64
2023/05/14 00:39:01;;;;;;;17.73;15.93;;;13.20;99.90;;;;;;6274679;28;20482;-64
2023/05/14 00:42:06;;;;;;;17.87;16.07;;;13.10;99.90;;;;;;6274332;28;20504;-64
2023/05/14 00:45:10;;;;;;;15.80;14.17;;;13.20;99.90;;;;;;6274438;28;20877;-65
2023/05/14 00:48:14;;;;;;;17.20;15.53;;;13.10;99.90;;;;;;6273373;28;20470;-65
2023/05/14 00:51:17;;;;;;;16.23;14.57;;;13.10;99.90;;;;;;6263783;28;20478;-64
2023/05/14 00:54:21;;;;;;;15.30;13.83;;;13.10;99.90;;;;;;6273365;28;20466;-64
2023/05/14 00:57:25;;;;;;;15.37;13.93;;;13.10;99.90;;;;;;6274052;28;20559;-64
2023/05/14 01:00:29;;;;;;;14.60;13.30;;;13.10;99.90;;;;;;6274365;28;20810;-64
2023/05/14 01:03:32;;;;;;;15.33;13.97;;;13.10;99.90;;;;;;6273859;28;20477;-64
2023/05/14 01:06:43;;;;;;;13.33;12.13;;;13.10;99.90;;;;;;6274508;28;20791;-64
2023/05/14 01:09:53;;;;;;;15.73;13.27;;;13.10;99.90;;;;;;6276042;28;20485;-64
2023/05/14 01:13:07;;;;;;;15.83;13.30;;;13.10;99.90;;;;;;6279003;28;20509;-64
2023/05/14 01:16:13;;;;;;;14.73;13.43;;;13.10;99.90;;;;;;6279105;28;20941;-64
2023/05/14 01:19:23;;;;;;;12.73;11.67;;;13.00;99.90;;;;;;6279233;28;20630;-64
2023/05/14 01:22:27;;;;;;;13.13;11.77;;;13.10;99.90;;;;;;6278642;28;20461;-64
2023/05/14 01:25:31;;;;;;;13.23;11.93;;;13.10;99.90;;;;;;6278709;28;20470;-64
2023/05/14 01:28:37;;;;;;;12.83;11.63;;;13.10;99.90;;;;;;6278543;28;20951;-64
2023/05/14 01:31:45;;;;;;;12.27;11.10;;;13.10;99.90;;;;;;6278352;28;20892;-64
2023/05/14 01:34:50;;;;;;;10.70;9.80;;;13.10;99.90;;;;;;6278587;28;20469;-64
2023/05/14 01:37:56;;;;;;;11.13;10.13;;;13.10;99.90;;;;;;6278167;28;20470;-64
2023/05/14 01:41:00;;;;;;;10.43;9.53;;;13.10;99.90;;;;;;6278387;28;20478;-64
2023/05/14 01:44:04;;;;;;;10.97;9.97;;;13.10;99.90;;;;;;6278195;28;20465;-64
2023/05/14 01:47:07;;;;;;;11.07;10.07;;;13.10;99.90;;;;;;6278191;28;20476;-64
2023/05/14 01:50:11;;;;;;;11.70;10.53;;;13.10;99.90;;;;;;6278523;28;20477;-64
2023/05/14 01:53:15;;;;;;;14.47;12.97;;;13.10;99.90;;;;;;6273691;28;20478;-64
2023/05/14 01:56:21;;;;;;;13.70;12.43;;;13.00;99.90;;;;;;6277967;28;20898;-64
2023/05/14 01:59:25;;;;;;;15.23;13.77;;;13.00;99.90;;;;;;6278089;28;20480;-64
2023/05/14 02:02:28;;;;;;;14.97;13.47;;;13.00;99.90;;;;;;6278125;28;20504;-64
2023/05/14 02:05:31;;;;;;;16.90;15.27;;;13.00;99.90;;;;;;6277825;28;20482;-64
2023/05/14 02:08:35;;;;;;;17.37;15.60;;;13.00;99.90;;;;;;6277966;28;20469;-64
2023/05/14 02:11:38;;;;;;;17.23;15.63;;;13.00;99.90;;;;;;6278017;28;20478;-64
2023/05/14 02:14:42;;;;;;;19.23;17.33;;;13.00;99.90;;;;;;6277925;28;20492;-64
2023/05/14 02:17:45;;;;;;;20.53;18.57;;;13.00;99.90;;;;;;6278058;28;20470;-64
2023/05/14 02:20:48;;;;;;;18.97;17.00;;;13.00;99.90;;;;;;6276954;28;20478;-64
2023/05/14 02:23:53;;;;;;;20.93;18.90;;;13.00;99.90;;;;;;6277364;28;20484;-64
2023/05/14 02:26:58;;;;;;;19.37;17.43;;;12.90;99.90;;;;;;6277397;28;20493;-64
2023/05/14 02:30:02;;;;;;;18.90;17.10;;;12.90;99.90;;;;;;6277560;28;20466;-64
2023/05/14 02:33:05;;;;;;;21.63;19.43;;;12.90;99.90;;;;;;6276969;28;20480;-64
2023/05/14 02:36:08;;;;;;;19.00;17.23;;;12.90;99.90;;;;;;6277044;28;20820;-64
2023/05/14 02:39:13;;;;;;;20.50;18.43;;;12.90;99.90;;;;;;6277228;28;20489;-65
2023/05/14 02:42:16;;;;;;;20.33;18.43;;;12.90;99.90;;;;;;6277852;28;20478;-64
2023/05/14 02:45:20;;;;;;;22.67;20.47;;;12.90;99.90;;;;;;6277312;28;20470;-64
2023/05/14 02:48:26;;;;;;;19.87;18.00;;;12.90;99.90;;;;;;6277137;28;20523;-64
2023/05/14 02:51:29;;;;;;;21.90;19.60;;;12.90;99.90;;;;;;6277018;28;20466;-64
2023/05/14 02:54:34;;;;;;;23.87;19.80;;;12.90;99.90;;;;;;6276628;28;20474;-64
2023/05/14 02:57:37;;;;;;;21.03;19.00;;;12.90;99.90;;;;;;6267365;28;20497;-64
2023/05/14 03:00:40;;;;;;;21.70;19.63;;;12.90;99.90;;;;;;6276508;28;20485;-64
2023/05/14 03:03:44;;;;;;;21.67;19.57;;;12.90;99.90;;;;;;6276883;28;20950;-64
2023/05/14 03:06:47;;;;;;;20.17;17.87;;;12.90;99.90;;;;;;6276387;28;20503;-64
2023/05/14 03:09:52;;;;;;;21.67;19.47;;;12.90;99.90;;;;;;6276584;28;20965;-64
2023/05/14 03:12:55;;;;;;;23.37;20.73;;;12.90;99.90;;;;;;6276463;28;20466;-64
2023/05/14 03:15:58;;;;;;;22.83;20.43;;;12.80;99.90;;;;;;6276013;28;20486;-65
2023/05/14 03:19:01;;;;;;;21.00;18.97;;;12.80;99.90;;;;;;6276475;28;20826;-64
2023/05/14 03:22:05;;;;;;;24.57;19.20;;;12.80;99.90;;;;;;6276704;28;20478;-63
2023/05/14 03:25:10;;;;;;;20.57;18.57;;;12.70;99.90;;;;;;6276012;28;20997;-64
2023/05/14 03:28:13;;;;;;;19.40;17.47;;;12.80;99.90;;;;;;6277312;28;20446;-64
2023/05/14 03:31:16;;;;;;;20.80;18.60;;;12.80;99.90;;;;;;6276027;28;20886;-64
2023/05/14 03:34:19;;;;;;;20.67;18.87;;;12.80;99.90;;;;;;6274460;28;20433;-64
2023/05/14 03:37:23;;;;;;;20.43;18.17;;;12.80;99.90;;;;;;6275721;28;20469;-64
2023/05/14 03:40:27;;;;;;;21.50;17.87;;;12.90;99.90;;;;;;6275421;28;20848;-64
2023/05/14 03:43:30;;;;;;;19.97;18.07;;;12.90;99.90;;;;;;6275329;28;20517;-64
2023/05/14 03:46:33;;;;;;;19.93;17.60;;;12.90;99.90;;;;;;6275271;28;20465;-64
2023/05/14 03:49:37;;;;;;;21.73;19.47;;;12.90;99.90;;;;;;6275397;28;20466;-63
2023/05/14 03:52:40;;;;;;;19.23;17.23;;;12.90;99.90;;;;;;6275179;28;20481;-63
2023/05/14 03:55:44;;;;;;;18.73;16.83;;;12.90;99.90;;;;;;6275197;28;20466;-64
2023/05/14 03:58:47;;;;;;;17.20;15.50;;;13.00;99.90;;;;;;6270763;28;20833;-63
2023/05/14 04:01:51;;;;;;;17.50;15.83;;;13.00;99.90;;;;;;6275293;28;20553;-63
2023/05/14 04:04:54;;;;;;;18.73;16.87;;;13.00;99.90;;;;;;6275367;28;20493;-64
2023/05/14 04:07:57;;;;;;;19.17;17.33;;;13.00;99.90;;;;;;6275045;28;20477;-64
2023/05/14 04:11:02;;;;;;;19.43;17.73;;;13.00;99.90;;;;;;6275221;28;20493;-64
2023/05/14 04:14:05;;;;;;;17.67;15.97;;;13.00;99.90;;;;;;6275014;28;20466;-63
2023/05/14 04:17:08;;;;;;;19.27;17.47;;;13.00;99.90;;;;;;6275361;28;20487;-64
2023/05/14 04:20:12;;;;;;;19.97;16.93;;;13.00;99.90;;;;;;6275191;28;20470;-64
2023/05/14 04:23:15;;;;;;;19.20;17.40;;;13.10;99.90;;;;;;6274711;28;20474;-63
2023/05/14 04:26:20;;;;;;;18.37;16.43;;;13.10;99.90;;;;;;6274853;28;20470;-64
2023/05/14 04:29:23;;;;;;;17.70;16.00;;;13.10;99.90;;;;;;6274826;28;20485;-64
2023/05/14 04:32:26;;;;;;;16.10;14.60;;;13.10;99.90;;;;;;6274563;28;20470;-64
2023/05/14 04:35:29;;;;;;;17.57;15.73;;;13.10;99.90;;;;;;6274327;28;20989;-64
2023/05/14 04:38:32;;;;;;;16.03;14.43;;;13.10;99.90;;;;;;6274127;28;20482;-63
2023/05/14 04:41:37;;;;;;;16.53;14.57;;;13.10;99.90;;;;;;6274587;28;21004;-63
2023/05/14 04:44:40;;;;;;;15.60;14.10;;;13.20;99.90;;;;;;6273755;28;20485;-64
2023/05/14 04:47:43;;;;;;;15.87;14.20;;;13.20;99.90;;;;;;6274480;28;20962;-64
2023/05/14 04:50:47;;;;;;;16.57;14.97;;;13.20;99.90;;;;;;6274317;28;20549;-65
2023/05/14 04:53:50;;;;;;;16.40;14.87;;;13.20;99.90;;;;;;6274219;28;20513;-64
2023/05/14 04:56:55;;;;;;;17.47;15.67;;;13.10;99.90;;;;;;6274402;28;20837;-65
2023/05/14 04:59:58;;;;;;;14.90;13.40;;;13.10;99.90;;;;;;6274940;28;20470;-65
2023/05/14 05:03:01;;;;;;;15.87;14.40;;;13.20;99.90;;;;;;6270197;28;20543;-64
2023/05/14 05:06:04;;;;;;;15.63;14.13;;;13.20;99.90;;;;;;6273785;28;20620;-64
2023/05/14 05:09:08;;;;;;;14.60;13.30;;;13.10;99.90;;;;;;6274344;28;20470;-64
2023/05/14 05:12:13;;;;;;;13.63;12.37;;;13.10;99.90;;;;;;6274426;28;20477;-64
2023/05/14 05:15:16;;;;;;;13.40;12.10;;;13.10;99.90;;;;;;6274249;28;20465;-64
2023/05/14 05:18:19;;;;;;;13.80;12.50;;;13.10;99.90;;;;;;6274451;28;20470;-64
2023/05/14 05:21:22;;;;;;;11.93;10.93;;;13.10;99.90;;;;;;6274136;28;20481;-64
2023/05/14 05:24:25;;;;;;;14.07;12.77;;;13.10;99.90;;;;;;6273864;28;20470;-63
2023/05/14 05:27:30;;;;;;;11.83;10.73;;;13.10;99.90;;;;;;6273672;28;20478;-64
2023/05/14 05:30:33;;;;;;;12.63;11.43;;;13.10;99.90;;;;;;6273928;28;20477;-64
2023/05/14 05:33:36;;;;;;;12.00;10.87;;;13.10;99.90;;;;;;6274189;28;20481;-64
2023/05/14 05:36:39;;;;;;;12.67;11.50;;;13.10;99.90;;;;;;6274003;28;20478;-64
2023/05/14 05:39:43;;;;;;;12.57;11.40;;;13.20;99.90;;;;;;6273859;28;20481;-64
2023/05/14 05:42:47;;;;;;;12.20;10.90;;;13.20;99.90;;;;;;6273831;28;20474;-64
2023/05/14 05:45:50;;;;;;;11.63;10.67;;;13.20;99.90;;;;;;6273422;28;20581;-64
2023/05/14 05:48:53;;;;;;;12.60;11.43;;;13.20;99.90;;;;;;6273894;28;20477;-64
2023/05/14 05:51:56;;;;;;;12.67;11.57;;;13.30;99.90;;;;;;6273810;28;20481;-64
2023/05/14 05:54:59;;;;;;;12.30;11.10;;;13.30;99.90;;;;;;6273524;28;20879;-64
2023/05/14 05:58:04;;;;;;;11.40;10.20;;;13.30;99.90;;;;;;6277241;28;20477;-64
2023/05/14 06:01:07;;;;;;;12.60;11.50;;;13.30;99.90;;;;;;6277776;28;20779;-64
2023/05/14 06:04:10;;;;;;;12.07;11.07;;;13.30;99.90;;;;;;6278458;28;20450;-64
2023/05/14 06:07:13;;;;;;;13.73;12.60;;;13.30;99.90;;;;;;6278436;28;20489;-64
2023/05/14 06:10:17;;;;;;;12.47;11.37;;;13.30;99.90;;;;;;6278118;28;20507;-64
2023/05/14 06:13:21;;;;;;;12.43;11.33;;;13.40;99.90;;;;;;6278225;28;20891;-64
2023/05/14 06:16:24;;;;;;;10.40;9.50;;;13.40;99.90;;;;;;6277741;28;20465;-64
2023/05/14 06:19:28;;;;;;;12.17;10.97;;;13.40;99.90;;;;;;6278031;28;20466;-64
2023/05/14 06:22:31;;;;;;;12.37;11.17;;;13.40;99.90;;;;;;6277771;28;20470;-64
2023/05/14 06:25:34;;;;;;;13.10;11.80;;;13.40;99.90;;;;;;6277836;28;20481;-64
2023/05/14 06:28:39;;;;;;;11.63;10.63;;;13.40;99.90;;;;;;6277718;28;20466;-64
2023/05/14 06:31:42;;;;;;;12.77;11.57;;;13.50;99.90;;;;;;6277435;28;20482;-64
2023/05/14 06:34:45;;;;;;;12.47;11.37;;;13.60;99.90;;;;;;6277515;28;20462;-64
2023/05/14 06:37:49;;;;;;;12.37;11.17;;;13.60;99.90;;;;;;6277549;28;20508;-64
2023/05/14 06:40:52;;;;;;;12.00;10.80;;;13.70;99.90;;;;;;6277019;28;20859;-65
2023/05/14 06:43:57;;;;;;;11.17;10.17;;;13.70;99.90;;;;;;6277071;28;20485;-65
2023/05/14 06:47:00;;;;;;;12.40;11.40;;;13.70;99.90;;;;;;6276746;28;21019;-65
2023/05/14 06:50:03;;;;;;;11.70;10.80;;;13.80;99.90;;;;;;6276865;28;20496;-64
2023/05/14 06:53:07;;;;;;;12.20;10.70;;;13.80;99.90;;;;;;6277372;28;20512;-64
2023/05/14 06:56:10;;;;;;;9.87;9.00;;;13.80;99.90;;;;;;6277194;28;20481;-64
2023/05/14 06:59:14;;;;;;;9.97;8.97;;;13.80;99.90;;;;;;6276837;28;20478;-63
2023/05/14 07:02:18;;;;;;;10.53;9.53;;;13.70;99.90;;;;;;6277257;28;20471;-63
2023/05/14 07:05:21;;;;;;;9.30;8.50;;;13.80;99.90;;;;;;6276733;28;20589;-63
2023/05/14 07:08:24;;;;;;;9.63;8.83;;;13.80;99.90;;;;;;6276803;28;20474;-63
2023/05/14 07:11:27;;;;;;;8.17;7.57;;;13.90;99.90;;;;;;6267821;28;20470;-63
2023/05/14 07:14:32;;;;;;;8.07;7.37;;;13.80;99.90;;;;;;6276870;28;21004;-65
2023/05/14 07:17:36;;;;;;;9.10;8.20;;;13.80;99.90;;;;;;6280326;28;20477;-64
2023/05/14 07:20:39;;;;;;;7.70;7.10;;;13.80;99.90;;;;;;6279119;28;20465;-64
2023/05/14 07:23:42;;;;;;;6.40;5.77;;;13.80;99.90;;;;;;6276674;28;20481;-64
2023/05/14 07:26:46;;;;;;;6.27;5.73;;;13.80;99.90;;;;;;6276040;28;20466;-64
2023/05/14 07:29:51;;;;;;;5.33;4.83;;;13.70;99.90;;;;;;6276251;28;20474;-64
2023/05/14 07:32:54;;;;;;;4.57;4.27;;;13.70;99.90;;;;;;6276114;28;20470;-64
2023/05/14 07:35:57;;;;;;;4.20;4.00;;;13.70;99.90;;;;;;6276056;28;20523;-65
2023/05/14 07:39:00;;;;;;;4.30;4.00;;;13.70;99.90;;;;;;6275647;28;20467;-64
2023/05/14 07:42:05;;;;;;;4.07;3.77;;;13.70;99.90;;;;;;6275304;28;20499;-65
2023/05/14 07:45:10;;;;;;;3.77;3.47;;;13.80;99.90;;;;;;6275085;28;20470;-65
2023/05/14 07:48:13;;;;;;;3.47;3.17;;;13.80;99.90;;;;;;6272667;28;20537;-65
2023/05/14 07:51:17;;;;;;;4.43;4.10;;;13.80;99.90;;;;;;6275201;28;20552;-65
2023/05/14 07:54:20;;;;;;;3.50;3.20;;;13.90;99.90;;;;;;6275235;28;20462;-65
2023/05/14 07:57:23;;;;;;;3.20;3.00;;;13.90;99.90;;;;;;6274527;28;20470;-65
2023/05/14 08:00:28;;;;;;;5.10;3.60;;;13.90;99.90;;;;;;6274894;28;20501;-64
2023/05/14 08:03:31;;;;;;;3.70;3.40;;;13.90;99.90;;;;;;6274690;28;20776;-64
2023/05/14 08:06:34;;;;;;;3.00;2.70;;;14.10;99.90;;;;;;6271842;28;20493;-64
2023/05/14 08:09:37;;;;;;;4.07;3.23;;;14.10;99.90;;;;;;6274779;28;20466;-64
2023/05/14 08:12:41;;;;;;;3.30;3.10;;;14.20;99.90;;;;;;6274723;28;20466;-67
2023/05/14 08:15:46;;;;;;;3.40;3.20;;;14.30;99.90;;;;;;6269963;28;20992;-65
2023/05/14 08:18:49;;;;;;;3.13;2.93;;;14.30;99.90;;;;;;6274369;28;20474;-63
2023/05/14 08:21:52;;;;;;;3.70;2.50;;;14.30;99.90;;;;;;6274887;28;20832;-63
2023/05/14 08:24:55;;;;;;;2.40;2.30;;;14.30;99.90;;;;;;6274868;28;20484;-65
2023/05/14 08:27:59;;;;;;;3.30;2.50;;;14.20;99.90;;;;;;6274786;28;20490;-65
2023/05/14 08:31:04;;;;;;;2.80;2.60;;;14.20;99.90;;;;;;6274312;28;20477;-64
2023/05/14 08:34:07;;;;;;;2.90;2.70;;;14.20;99.90;;;;;;6275149;28;20543;-64
2023/05/14 08:37:10;;;;;;;3.00;2.67;;;14.20;99.90;;;;;;6274468;28;20469;-64
2023/05/14 08:40:14;;;;;;;2.70;2.50;;;14.10;99.90;;;;;;6275259;28;20452;-64
2023/05/14 08:43:23;;;;;;;2.80;2.60;;;14.10;99.90;;;;;;6274541;28;20909;-63
2023/05/14 08:46:30;;;;;;;3.70;2.27;;;14.20;99.90;;;;;;6274758;28;20491;-66
2023/05/14 08:49:40;;;;;;;2.90;2.53;;;14.20;99.90;;;;;;6274423;28;20466;-66
2023/05/14 08:52:44;;;;;;;3.00;2.80;;;14.40;99.90;;;;;;6274925;28;20972;-66
2023/05/14 08:55:49;;;;;;;2.80;2.60;;;14.50;99.90;;;;;;6273616;28;20485;-66
2023/05/14 08:58:52;;;;;;;2.57;2.37;;;14.50;99.90;;;;;;6274621;28;20500;-66
2023/05/14 09:02:01;;;;;;;2.53;2.33;;;14.50;99.90;;;;;;6274478;28;20823;-67
2023/05/14 09:05:06;;;;;;;2.33;2.23;;;14.50;99.90;;;;;;6274609;28;20945;-67
2023/05/14 09:08:09;;;;;;;2.60;2.40;;;14.60;99.90;;;;;;6274181;28;20786;-68
2023/05/14 09:11:12;;;;;;;2.47;2.27;;;14.60;99.90;;;;;;6275236;28;20478;-64
2023/05/14 09:14:16;;;;;;;2.17;2.03;;;14.70;99.90;;;;;;6270813;28;22889;-65
2023/05/14 09:17:21;;;;;;;2.17;2.07;;;14.70;99.90;;;;;;6273832;28;20972;-68
2023/05/14 09:20:24;;;;;;;2.20;2.03;;;14.70;99.90;;;;;;6273921;28;20571;-66
2023/05/14 09:23:32;;;;;;;2.40;2.30;;;14.60;99.90;;;;;;6273971;28;20549;-69
2023/05/14 09:26:35;;;;;;;1.43;1.33;;;14.50;99.90;;;;;;6273981;28;20962;-67
2023/05/14 09:29:38;;;;;;;1.70;1.60;;;14.50;99.90;;;;;;6273691;28;20985;-69
2023/05/14 09:32:44;;;;;;;1.80;1.70;;;14.40;99.90;;;;;;6277019;28;21000;-69
2023/05/14 09:35:48;;;;;;;1.70;1.50;;;14.30;99.90;;;;;;6278049;28;20473;-69
2023/05/14 09:38:51;;;;;;;1.73;1.63;;;14.20;99.90;;;;;;6277536;28;20481;-68
2023/05/14 09:41:55;;;;;;;1.97;1.87;;;14.10;99.90;;;;;;6278128;28;20484;-68
2023/05/14 09:44:58;;;;;;;2.03;1.70;;;14.10;99.90;;;;;;6283148;28;20458;-68
2023/05/14 09:48:03;;;;;;;1.87;1.77;;;14.00;99.90;;;;;;6285259;28;20477;-68
2023/05/14 09:51:06;;;;;;;1.70;1.60;;;13.90;99.90;;;;;;6278931;28;20485;-67
2023/05/14 09:54:10;;;;;;;1.97;1.87;;;13.80;99.90;;;;;;6277963;28;20469;-67
2023/05/14 09:57:13;;;;;;;1.87;1.77;;;13.80;99.90;;;;;;6278745;28;20482;-73
2023/05/14 10:00:17;;;;;;;2.00;1.90;;;13.90;99.90;;;;;;6278224;28;20470;-66
2023/05/14 10:03:24;;;;;;;1.57;1.47;;;14.00;99.90;;;;;;6277867;28;20488;-65
2023/05/14 10:06:33;;;;;;;1.80;1.70;;;14.10;99.90;;;;;;6277123;28;20469;-67
2023/05/14 10:09:39;;;;;;;2.50;1.50;;;14.20;99.90;;;;;;6275309;28;20530;-65
2023/05/14 10:12:49;;;;;;;1.50;1.40;;;14.30;99.90;;;;;;6277396;28;20481;-72
2023/05/14 10:16:01;;;;;;;1.70;1.60;;;14.50;99.90;;;;;;6274557;28;20481;-73
2023/05/14 10:19:09;;;;;;;1.80;1.70;;;14.80;99.90;;;;;;6272130;28;20800;-71
2023/05/14 10:22:15;;;;;;;1.80;1.70;;;15.20;99.90;;;;;;6267959;28;20461;-65
2023/05/14 10:25:18;;;;;;;1.47;1.37;;;15.60;99.90;;;;;;6277067;28;20459;-66
2023/05/14 10:28:21;;;;;;;1.57;1.47;;;15.80;99.90;;;;;;6276820;28;20507;-64
2023/05/14 10:31:46;;;;;;;2.00;1.60;;;16.00;99.90;;;;;;6277002;28;20453;-64
2023/05/14 10:34:52;;;;;;;1.70;1.60;;;16.10;99.90;;;;;;6276884;28;20473;-64
2023/05/14 10:37:56;;;;;;;1.30;1.20;;;16.10;99.90;;;;;;6276478;28;20466;-64
2023/05/14 10:41:01;;;;;;;1.07;1.03;;;15.90;99.90;;;;;;6276838;28;20476;-66
2023/05/14 10:44:09;;;;;;;1.30;1.20;;;15.60;99.90;;;;;;6276137;28;20481;-65
2023/05/14 10:47:13;;;;;;;1.40;1.30;;;15.50;99.90;;;;;;6275771;28;20467;-64
2023/05/14 10:50:18;;;;;;;1.30;1.23;;;15.40;99.90;;;;;;6275445;28;21258;-64
2023/05/14 10:53:31;;;;;;;1.30;1.20;;;15.10;99.90;;;;;;6276219;28;20607;-64
2023/05/14 10:56:36;;;;;;;1.60;1.50;;;15.10;99.90;;;;;;6276732;28;20489;-64
2023/05/14 10:59:42;;;;;;;1.20;1.10;;;15.10;99.90;;;;;;6277048;28;20470;-64
2023/05/14 11:02:45;;;;;;;3.33;1.17;;;15.20;99.90;;;;;;6275944;28;20470;-64
2023/05/14 11:05:51;;;;;;;1.27;1.17;;;15.20;99.90;;;;;;6276047;28;20608;-64
2023/05/14 11:08:55;;;;;;;2.87;1.23;;;15.20;99.90;;;;;;6275466;28;20469;-62
2023/05/14 11:11:58;;;;;;;1.13;1.10;;;15.30;99.90;;;;;;6276122;28;20485;-64
2023/05/14 11:15:03;;;;;;;1.37;1.27;;;15.40;99.90;;;;;;6275669;28;20486;-67
2023/05/14 11:18:06;;;;;;;1.13;1.03;;;15.50;99.90;;;;;;6276188;28;20537;-66
2023/05/14 11:21:11;;;;;;;1.10;1.03;;;15.50;99.90;;;;;;6275969;28;20466;-66
2023/05/14 11:24:15;;;;;;;1.50;1.40;;;15.50;99.90;;;;;;6276909;28;20478;-63
2023/05/14 11:27:18;;;;;;;1.20;1.13;;;15.40;99.90;;;;;;6272466;28;20482;-64
2023/05/14 11:30:22;;;;;;;1.13;1.03;;;15.30;99.90;;;;;;6277208;28;20474;-64
2023/05/14 11:33:28;;;;;;;1.20;1.10;;;15.20;99.90;;;;;;6275859;28;20480;-64
2023/05/14 11:36:32;;;;;;;1.10;1.00;;;15.10;99.90;;;;;;6275353;28;20474;-64
2023/05/14 11:39:36;;;;;;;1.50;1.40;;;14.60;99.90;;;;;;6275926;28;20825;-64
2023/05/14 11:42:39;;;;;;;1.27;1.17;;;14.60;99.90;;;;;;6274503;28;20474;-64
2023/05/14 11:45:42;;;;;;;1.20;1.10;;;14.60;99.90;;;;;;6274705;28;20477;-64
2023/05/14 11:48:46;;;;;;;1.40;1.20;;;14.50;99.90;;;;;;6275661;28;20477;-64
2023/05/14 11:51:50;;;;;;;1.20;1.10;;;14.60;99.90;;;;;;6275328;28;20470;-64
2023/05/14 11:54:54;;;;;;;0.97;0.93;;;14.60;99.90;;;;;;6274682;28;20474;-65
2023/05/14 11:57:58;;;;;;;0.80;0.80;;;14.60;99.90;;;;;;6275302;28;20783;-65
2023/05/14 12:01:01;;;;;;;1.20;1.10;;;14.50;99.90;;;;;;6274934;28;20481;-65
2023/05/14 12:04:05;;;;;;;0.87;0.80;;;14.50;99.90;;;;;;6275181;28;20481;-65
2023/05/14 12:07:11;;;;;;;1.20;1.10;;;14.40;99.90;;;;;;6284418;28;20486;-66
2023/05/14 12:10:15;;;;;;;1.00;0.87;;;14.50;99.90;;;;;;6295414;28;20761;-64
2023/05/14 12:13:19;;;;;;;0.80;0.80;;;14.50;99.90;;;;;;6277709;28;20434;-64
2023/05/14 12:16:22;;;;;;;0.83;0.83;;;14.40;99.90;;;;;;6275437;28;20469;-64
2023/05/14 12:19:25;;;;;;;1.00;1.00;;;14.30;99.90;;;;;;6274747;28;20891;-64
2023/05/14 12:22:30;;;;;;;1.77;0.90;;;14.20;99.90;;;;;;6274314;28;20909;-64
2023/05/14 12:25:33;;;;;;;1.10;1.00;;;14.10;99.90;;;;;;6275183;28;20600;-64
2023/05/14 12:28:41;;;;;;;0.70;0.70;;;14.10;99.90;;;;;;6274547;28;20465;-65
2023/05/14 12:31:47;;;;;;;2.43;0.77;;;14.10;99.90;;;;;;6275154;28;20462;-65
2023/05/14 12:34:50;;;;;;;1.47;0.80;;;14.10;99.90;;;;;;6274336;28;20473;-65
2023/05/14 12:37:54;;;;;;;1.27;0.93;;;14.10;99.90;;;;;;6257039;28;20476;-65
2023/05/14 12:40:58;;;;;;;1.20;1.10;;;14.00;99.90;;;;;;6274580;28;20470;-65
2023/05/14 12:44:02;;;;;;;1.27;0.80;;;14.00;99.90;;;;;;6274219;28;20470;-64
2023/05/14 12:47:06;;;;;;;0.70;0.70;;;14.00;99.90;;;;;;6274444;28;20473;-64
2023/05/14 12:50:09;;;;;;;0.80;0.80;;;13.90;99.90;;;;;;6274537;28;20466;-64
2023/05/14 12:53:15;;;;;;;2.00;1.00;;;13.80;99.90;;;;;;6274567;28;20474;-64
2023/05/14 12:56:18;;;;;;;1.30;1.20;;;13.70;99.90;;;;;;6274053;28;20486;-64
2023/05/14 12:59:21;;;;;;;2.10;0.70;;;13.70;99.90;;;;;;6274249;28;20480;-69
2023/05/14 13:02:24;;;;;;;0.83;0.70;;;13.70;99.90;;;;;;6274256;28;20477;-65
2023/05/14 13:05:28;;;;;;;0.80;0.70;;;13.70;99.90;;;;;;6275869;28;20485;-65
2023/05/14 13:08:32;;;;;;;0.60;0.60;;;13.70;99.90;;;;;;6279353;28;20474;-67
2023/05/14 13:11:36;;;;;;;1.63;0.60;;;13.80;99.90;;;;;;6279595;28;20470;-67
2023/05/14 13:14:39;;;;;;;1.23;0.70;;;13.90;99.90;;;;;;6278523;28;20474;-67
2023/05/14 13:17:42;;;;;;;1.17;0.87;;;13.90;99.90;;;;;;6279481;28;20484;-67
2023/05/14 13:20:46;;;;;;;0.80;0.80;;;13.90;99.90;;;;;;6278929;28;20473;-64
2023/05/14 13:23:50;;;;;;;0.70;0.70;;;14.00;99.90;;;;;;6279288;28;20466;-64
2023/05/14 13:26:55;;;;;;;1.40;1.03;;;14.00;99.90;;;;;;6278715;28;20928;-65
2023/05/14 13:29:59;;;;;;;0.90;0.90;;;13.90;99.90;;;;;;6278337;28;20550;-62
2023/05/14 13:33:02;;;;;;;1.00;0.93;;;14.00;99.90;;;;;;6279859;28;20477;-68
2023/05/14 13:36:07;;;;;;;1.63;1.03;;;14.00;99.90;;;;;;6278889;28;20469;-67
2023/05/14 13:39:11;;;;;;;1.90;1.80;;;14.10;99.90;;;;;;6278913;28;20482;-69
2023/05/14 13:42:16;;;;;;;2.13;2.00;;;14.10;99.90;;;;;;6278531;28;20509;-68
2023/05/14 13:45:19;;;;;;;0.73;0.73;;;14.10;99.90;;;;;;6278650;28;20474;-68
2023/05/14 13:48:22;;;;;;;1.60;0.77;;;14.10;99.90;;;;;;6278347;28;20478;-69
2023/05/14 13:51:26;;;;;;;0.90;0.90;;;14.20;99.90;;;;;;6278827;28;20470;-69
2023/05/14 13:54:30;;;;;;;0.80;0.70;;;14.20;99.90;;;;;;6275067;28;20508;-70
2023/05/14 13:57:33;;;;;;;0.73;0.73;;;14.20;99.90;;;;;;6267022;28;20470;-69
2023/05/14 14:00:36;;;;;;;0.87;0.87;;;14.20;99.90;;;;;;6264453;28;20828;-69
2023/05/14 14:03:40;;;;;;;0.70;0.70;;;14.20;99.90;;;;;;6267168;28;20466;-69
2023/05/14 14:06:43;;;;;;;0.83;0.83;;;14.20;99.90;;;;;;6267033;28;20477;-69
2023/05/14 14:09:48;;;;;;;0.67;0.60;;;14.10;99.90;;;;;;6264183;28;20479;-68
2023/05/14 14:12:53;;;;;;;0.70;0.70;;;14.10;99.90;;;;;;6266772;28;20481;-68
2023/05/14 14:15:57;;;;;;;0.87;0.67;;;14.20;99.90;;;;;;6266446;28;20477;-69
2023/05/14 14:19:00;;;;;;;0.60;0.50;;;14.10;99.90;;;;;;6265510;28;20857;-69
2023/05/14 14:22:03;;;;;;;0.87;0.70;;;14.10;99.90;;;;;;6260652;28;20482;-69
2023/05/14 14:25:10;;;;;;;0.70;0.60;;;14.00;99.90;;;;;;6262268;28;20965;-67
2023/05/14 14:28:13;;;;;;;1.57;1.47;;;14.00;99.90;;;;;;6266299;28;20458;-68
2023/05/14 14:31:16;;;;;;;0.70;0.70;;;13.90;99.90;;;;;;6266165;28;20488;-68
2023/05/14 14:34:19;;;;;;;0.60;0.60;;;13.90;99.90;;;;;;6267919;28;20435;-68
2023/05/14 14:37:22;;;;;;;0.80;0.70;;;13.90;99.90;;;;;;6265304;28;20455;-68
2023/05/14 14:40:28;;;;;;;1.00;0.80;;;13.90;99.90;;;;;;6273005;28;20876;-70
2023/05/14 14:43:31;;;;;;;0.60;0.60;;;13.90;99.90;;;;;;6275068;28;20482;-69
2023/05/14 14:46:34;;;;;;;0.90;0.90;;;13.90;99.90;;;;;;6265414;28;20462;-69
2023/05/14 14:49:38;;;;;;;1.63;0.80;;;13.90;99.90;;;;;;6264735;28;20477;-68
2023/05/14 14:52:44;;;;;;;1.07;0.80;;;13.90;99.90;;;;;;6262586;28;20463;-69
2023/05/14 14:55:50;;;;;;;1.03;0.93;;;13.90;99.90;;;;;;6261736;28;20526;-70
2023/05/14 14:58:53;;;;;;;1.13;1.03;;;14.00;99.90;;;;;;6273166;28;20462;-70
2023/05/14 15:01:56;;;;;;;1.20;1.10;;;14.00;99.90;;;;;;6262564;28;20475;-69
2023/05/14 15:04:59;;;;;;;1.33;1.23;;;14.10;99.90;;;;;;6260862;28;20812;-68
2023/05/14 15:08:03;;;;;;;1.70;1.30;;;14.00;99.90;;;;;;6254636;28;20486;-70
2023/05/14 15:11:07;;;;;;;1.03;0.93;;;14.10;99.90;;;;;;6253368;28;20482;-68
2023/05/14 15:14:11;;;;;;;1.30;1.20;;;14.00;99.90;;;;;;6259990;28;20462;-69
2023/05/14 15:17:15;;;;;;;0.87;0.87;;;13.90;99.90;;;;;;6277581;28;20478;-68
2023/05/14 15:20:18;;;;;;;1.03;0.93;;;13.90;99.90;;;;;;6276270;28;20470;-68
2023/05/14 15:23:21;;;;;;;1.10;1.00;;;14.00;99.90;;;;;;6276063;28;20465;-66
2023/05/14 15:26:26;;;;;;;1.83;1.60;;;14.00;99.90;;;;;;6276017;28;20482;-68
2023/05/14 15:29:29;;;;;;;0.97;0.77;;;14.00;99.90;;;;;;6276069;28;20782;-67
2023/05/14 15:32:32;;;;;;;1.97;0.90;;;14.00;99.90;;;;;;6276298;28;20480;-67
2023/05/14 15:35:36;;;;;;;0.87;0.87;;;14.00;99.90;;;;;;6276171;28;20498;-67
2023/05/14 15:38:39;;;;;;;1.03;0.90;;;14.10;99.90;;;;;;6275743;28;20784;-68
2023/05/14 15:41:44;;;;;;;1.80;0.80;;;14.10;99.90;;;;;;6275830;28;20485;-68
2023/05/14 15:44:47;;;;;;;1.17;1.07;;;14.10;99.90;;;;;;6275301;28;20478;-68
2023/05/14 15:47:53;;;;;;;1.30;1.20;;;14.10;99.90;;;;;;6276001;28;20466;-69